Time,TemperatureF,DewpointF,PressureIn,WindDirection,WindDirectionDegrees,WindSpeedMPH,WindSpeedGustMPH,Humidity,HourlyPrecipIn,Conditions,Clouds,dailyrainin,SoftwareType,DateUTC
2013-05-27 00:31:00,51.1,39.5,29.97,East,90,8.1,8.1,64,0.00,,,0.00,WUHU21623XXSP,2013-05-27 05:31:00,
2013-05-27 01:31:00,51.4,40.1,29.95,East,90,2.0,2.0,65,0.00,,,0.00,WUHU21623XXSP,2013-05-27 06:31:00,
2013-05-27 02:31:00,51.3,40.4,29.93,ENE,68,3.1,3.1,66,0.00,,,0.00,WUHU21623XXSP,2013-05-27 07:31:00,
2013-05-27 03:31:00,51.6,41.1,29.90,ENE,68,0.0,0.0,67,0.00,,,0.00,WUHU21623XXSP,2013-05-27 08:31:00,
2013-05-27 04:31:00,52.0,42.3,29.89,North,0,2.2,2.2,69,0.00,,,0.00,WUHU21623XXSP,2013-05-27 09:31:00,
2013-05-27 05:31:00,52.3,42.5,29.89,ESE,113,3.8,3.8,69,0.00,,,0.00,WUHU21623XXSP,2013-05-27 10:31:00,
2013-05-27 06:31:00,52.9,42.4,29.90,SE,135,1.1,1.1,67,0.00,,,0.00,WUHU21623XXSP,2013-05-27 11:31:00,
2013-05-27 07:24:00,53.8,42.6,29.90,SE,135,7.8,7.8,66,0.00,,,0.00,WUHU21623XXSP,2013-05-27 12:24:00,
2013-05-27 07:29:00,54.0,43.2,29.90,ESE,112,11.6,11.6,67,0.00,,,0.00,WUHU21623XXSP,2013-05-27 12:29:00,
2013-05-27 07:34:00,54.3,43.6,29.90,East,90,3.4,11.6,67,0.00,,,0.00,WUHU21623XXSP,2013-05-27 12:34:00,
2013-05-27 07:39:00,54.5,44.1,29.90,ESE,112,10.1,11.6,68,0.00,,,0.00,WUHU21623XXSP,2013-05-27 12:39:00,
2013-05-27 07:44:00,54.3,44.4,29.91,ESE,112,15.0,15.0,69,0.00,,,0.00,WUHU21623XXSP,2013-05-27 12:44:00,
2013-05-27 07:49:00,54.3,45.1,29.91,SE,135,14.5,15.0,71,0.00,,,0.00,WUHU21623XXSP,2013-05-27 12:49:00,
2013-05-27 07:54:00,54.1,45.3,29.90,ESE,112,6.0,14.5,72,0.00,,,0.00,WUHU21623XXSP,2013-05-27 12:54:00,
2013-05-27 07:59:00,54.0,45.8,29.90,SE,135,5.8,14.5,74,0.00,,,0.00,WUHU21623XXSP,2013-05-27 12:59:00,
2013-05-27 08:04:00,53.8,46.4,29.90,ESE,112,8.3,14.5,76,0.00,,,0.00,WUHU21623XXSP,2013-05-27 13:04:00,
2013-05-27 08:09:00,53.4,46.4,29.90,SE,135,3.1,8.3,77,0.00,,,0.00,WUHU21623XXSP,2013-05-27 13:09:00,
2013-05-27 08:14:00,53.2,46.9,29.90,ENE,67,2.0,6.9,79,0.00,,,0.00,WUHU21623XXSP,2013-05-27 13:14:00,
2013-05-27 08:19:00,52.9,46.9,29.90,NE,45,4.0,4.5,80,0.00,,,0.00,WUHU21623XXSP,2013-05-27 13:19:00,
2013-05-27 08:24:00,52.9,47.2,29.90,NE,45,5.1,5.1,81,0.00,,,0.00,WUHU21623XXSP,2013-05-27 13:24:00,
2013-05-27 08:29:00,52.9,47.6,29.90,NE,45,3.6,7.8,82,0.00,,,0.00,WUHU21623XXSP,2013-05-27 13:29:00,
2013-05-27 08:34:00,53.2,47.9,29.90,ESE,112,6.3,8.1,82,0.00,,,0.00,WUHU21623XXSP,2013-05-27 13:34:00,
2013-05-27 08:39:00,53.2,48.2,29.89,ESE,112,6.9,9.2,83,0.00,,,0.00,WUHU21623XXSP,2013-05-27 13:39:00,
2013-05-27 08:44:00,52.9,47.9,29.90,SE,135,8.5,9.2,83,0.00,,,0.00,WUHU21623XXSP,2013-05-27 13:44:00,
2013-05-27 08:49:00,52.9,47.9,29.90,SE,135,6.0,8.5,83,0.00,,,0.00,WUHU21623XXSP,2013-05-27 13:49:00,
2013-05-27 08:54:00,52.9,48.2,29.89,SE,135,3.8,6.0,84,0.00,,,0.00,WUHU21623XXSP,2013-05-27 13:54:00,
2013-05-27 08:59:00,52.7,48.0,29.89,ESE,112,2.9,7.6,84,0.00,,,0.00,WUHU21623XXSP,2013-05-27 13:59:00,
2013-05-27 09:04:00,52.7,48.0,29.89,NE,45,4.3,11.2,84,0.00,,,0.00,WUHU21623XXSP,2013-05-27 14:04:00,
2013-05-27 09:09:00,52.5,47.8,29.88,SSE,157,7.2,11.2,84,0.00,,,0.00,WUHU21623XXSP,2013-05-27 14:09:00,
2013-05-27 09:14:00,52.3,47.8,29.88,SSE,157,7.2,7.2,85,0.00,,,0.00,WUHU21623XXSP,2013-05-27 14:14:00,
2013-05-27 09:19:00,52.3,47.9,29.88,SE,135,5.6,7.6,85,0.00,,,0.00,WUHU21623XXSP,2013-05-27 14:19:00,
2013-05-27 09:24:00,52.3,48.2,29.88,East,90,5.8,7.6,86,0.00,,,0.00,WUHU21623XXSP,2013-05-27 14:24:00,
2013-05-27 09:29:00,52.3,48.2,29.87,SE,135,8.9,8.9,86,0.00,,,0.00,WUHU21623XXSP,2013-05-27 14:29:00,
2013-05-27 09:34:00,52.3,48.2,29.88,East,90,2.7,8.9,86,0.00,,,0.00,WUHU21623XXSP,2013-05-27 14:34:00,
2013-05-27 09:39:00,52.7,48.6,29.87,East,90,7.8,8.9,86,0.00,,,0.00,WUHU21623XXSP,2013-05-27 14:39:00,
2013-05-27 09:45:00,52.7,48.6,29.87,East,90,4.9,9.6,86,0.00,,,0.00,WUHU21623XXSP,2013-05-27 14:45:00,
2013-05-27 09:50:00,52.5,48.4,29.87,East,90,6.0,9.6,86,0.00,,,0.00,WUHU21623XXSP,2013-05-27 14:50:00,
2013-05-27 09:55:00,52.5,48.4,29.86,SE,135,6.9,8.5,86,0.00,,,0.00,WUHU21623XXSP,2013-05-27 14:55:00,
2013-05-27 10:00:00,52.7,48.6,29.86,SE,135,14.1,14.1,86,0.00,,,0.00,WUHU21623XXSP,2013-05-27 15:00:00,
2013-05-27 10:05:00,52.5,48.4,29.85,East,90,5.4,14.1,86,0.00,,,0.00,WUHU21623XXSP,2013-05-27 15:05:00,
2013-05-27 10:10:00,52.5,48.4,29.85,SE,135,4.0,11.2,86,0.00,,,0.00,WUHU21623XXSP,2013-05-27 15:10:00,
2013-05-27 10:15:00,52.3,48.2,29.85,SE,135,5.1,11.2,86,0.00,,,0.00,WUHU21623XXSP,2013-05-27 15:15:00,
2013-05-27 10:20:00,52.3,48.5,29.85,SE,135,13.2,13.2,87,0.00,,,0.00,WUHU21623XXSP,2013-05-27 15:20:00,
2013-05-27 10:25:00,52.3,48.5,29.85,ENE,67,6.0,13.2,87,0.00,,,0.00,WUHU21623XXSP,2013-05-27 15:25:00,
2013-05-27 10:30:00,52.3,48.5,29.85,ESE,112,4.9,13.2,87,0.00,,,0.00,WUHU21623XXSP,2013-05-27 15:30:00,
2013-05-27 10:35:00,52.2,48.4,29.85,East,90,6.5,13.2,87,0.00,,,0.00,WUHU21623XXSP,2013-05-27 15:35:00,
2013-05-27 10:40:00,52.2,48.7,29.85,ENE,67,8.5,8.5,88,0.00,,,0.00,WUHU21623XXSP,2013-05-27 15:40:00,
2013-05-27 10:45:00,52.2,48.7,29.85,East,90,4.9,8.5,88,0.00,,,0.00,WUHU21623XXSP,2013-05-27 15:45:00,
2013-05-27 10:50:00,52.3,48.7,29.84,SE,135,9.6,9.6,88,0.00,,,0.00,WUHU21623XXSP,2013-05-27 15:50:00,
2013-05-27 11:31:00,52.5,49.3,29.85,ESE,113,6.3,6.3,89,0.00,,,0.00,WUHU21623XXSP,2013-05-27 16:31:00,
2013-05-27 12:31:00,52.0,48.8,29.86,SSE,158,3.1,3.1,89,0.00,,,0.00,WUHU21623XXSP,2013-05-27 17:31:00,
2013-05-27 13:31:00,52.0,48.8,29.85,ESE,113,8.3,8.3,89,0.00,,,0.00,WUHU21623XXSP,2013-05-27 18:31:00,
2013-05-27 14:31:00,52.0,48.8,29.83,ENE,68,4.3,4.3,89,0.00,,,0.00,WUHU21623XXSP,2013-05-27 19:31:00,
2013-05-27 15:31:00,51.4,48.2,29.79,SE,135,13.0,13.0,89,0.00,,,0.00,WUHU21623XXSP,2013-05-27 20:31:00,
2013-05-27 16:31:00,50.5,47.6,29.77,East,90,2.2,2.2,90,0.00,,,0.00,WUHU21623XXSP,2013-05-27 21:31:00,
2013-05-27 17:02:00,50.2,47.3,29.77,ESE,112,3.4,3.4,90,0.00,,,0.00,WUHU21623XXSP,2013-05-27 22:02:00,
2013-05-27 17:07:00,50.2,47.3,29.77,ESE,112,4.3,4.3,90,0.00,,,0.00,WUHU21623XXSP,2013-05-27 22:07:00,
2013-05-27 17:12:00,50.2,47.3,29.77,SE,135,6.3,7.8,90,0.00,,,0.00,WUHU21623XXSP,2013-05-27 22:12:00,
2013-05-27 17:17:00,50.2,47.3,29.77,ESE,112,4.7,7.8,90,0.00,,,0.00,WUHU21623XXSP,2013-05-27 22:17:00,
2013-05-27 17:22:00,50.2,47.3,29.77,ESE,112,7.4,7.4,90,0.00,,,0.00,WUHU21623XXSP,2013-05-27 22:22:00,
2013-05-27 17:27:00,50.2,47.3,29.77,East,90,6.3,7.4,90,0.00,,,0.00,WUHU21623XXSP,2013-05-27 22:27:00,
2013-05-27 17:32:00,50.2,47.3,29.78,East,90,6.3,6.3,90,0.00,,,0.00,WUHU21623XXSP,2013-05-27 22:32:00,
2013-05-27 17:37:00,50.2,47.3,29.78,ESE,112,4.9,6.3,90,0.00,,,0.00,WUHU21623XXSP,2013-05-27 22:37:00,
2013-05-27 17:42:00,50.4,47.5,29.78,ENE,67,0.0,7.4,90,0.00,,,0.00,WUHU21623XXSP,2013-05-27 22:42:00,
2013-05-27 17:47:00,50.2,47.3,29.78,East,90,2.9,7.4,90,0.00,,,0.00,WUHU21623XXSP,2013-05-27 22:47:00,
2013-05-27 17:52:00,50.2,47.3,29.77,SE,135,0.0,7.6,90,0.00,,,0.00,WUHU21623XXSP,2013-05-27 22:52:00,
2013-05-27 17:57:00,50.2,47.3,29.77,ESE,112,11.9,11.9,90,0.00,,,0.00,WUHU21623XXSP,2013-05-27 22:57:00,
2013-05-27 18:02:00,50.2,47.3,29.77,NNE,22,2.0,11.9,90,0.00,,,0.00,WUHU21623XXSP,2013-05-27 23:02:00,
2013-05-27 18:07:00,50.2,47.3,29.77,ESE,112,8.1,8.1,90,0.00,,,0.00,WUHU21623XXSP,2013-05-27 23:07:00,
2013-05-27 18:12:00,50.2,47.3,29.77,East,90,0.0,8.5,90,0.00,,,0.00,WUHU21623XXSP,2013-05-27 23:12:00,
2013-05-27 18:17:00,50.0,47.1,29.76,NE,45,2.9,8.5,90,0.00,,,0.00,WUHU21623XXSP,2013-05-27 23:17:00,
2013-05-27 18:22:00,49.8,47.0,29.76,SE,135,3.8,7.4,90,0.00,,,0.00,WUHU21623XXSP,2013-05-27 23:22:00,
2013-05-27 18:28:00,49.8,47.0,29.76,ESE,112,5.4,7.4,90,0.00,,,0.00,WUHU21623XXSP,2013-05-27 23:28:00,
2013-05-27 18:33:00,49.8,47.0,29.76,ENE,67,4.3,6.3,90,0.00,,,0.00,WUHU21623XXSP,2013-05-27 23:33:00,
2013-05-27 18:38:00,49.8,47.0,29.76,NNE,22,4.7,4.7,90,0.00,,,0.00,WUHU21623XXSP,2013-05-27 23:38:00,
2013-05-27 18:43:00,49.8,47.0,29.75,ENE,67,4.5,5.4,90,0.00,,,0.00,WUHU21623XXSP,2013-05-27 23:43:00,
2013-05-27 18:48:00,49.8,47.0,29.76,ENE,67,0.0,5.4,90,0.00,,,0.00,WUHU21623XXSP,2013-05-27 23:48:00,
2013-05-27 18:53:00,49.8,47.0,29.76,SE,135,4.0,4.0,90,0.00,,,0.00,WUHU21623XXSP,2013-05-27 23:53:00,
2013-05-27 18:58:00,49.6,47.1,29.76,ENE,67,6.5,6.5,91,0.00,,,0.00,WUHU21623XXSP,2013-05-27 23:58:00,
2013-05-27 18:59:00,49.6,47.1,29.76,East,90,0.0,6.5,91,0.00,,,0.00,WUHU21623XXSP,2013-05-27 23:59:00,
2013-05-27 19:16:00,49.6,47.1,29.75,ESE,112,6.0,6.0,91,0.00,,,0.00,WUHU21623XXSP,2013-05-28 00:16:00,
2013-05-27 19:21:00,49.6,47.1,29.75,ENE,67,1.8,6.0,91,0.00,,,0.00,WUHU21623XXSP,2013-05-28 00:21:00,
2013-05-27 19:26:00,49.3,46.7,29.75,ESE,112,0.0,10.3,91,0.00,,,0.00,WUHU21623XXSP,2013-05-28 00:26:00,
2013-05-27 19:31:00,49.3,46.7,29.75,ESE,112,3.1,10.3,91,0.00,,,0.00,WUHU21623XXSP,2013-05-28 00:31:00,
2013-05-27 19:36:00,49.3,46.7,29.74,ENE,67,4.7,4.7,91,0.00,,,0.00,WUHU21623XXSP,2013-05-28 00:36:00,
2013-05-27 19:41:00,49.3,46.7,29.74,East,90,4.7,4.7,91,0.00,,,0.00,WUHU21623XXSP,2013-05-28 00:41:00,
2013-05-27 19:46:00,49.3,46.7,29.74,ENE,67,0.7,4.7,91,0.00,,,0.00,WUHU21623XXSP,2013-05-28 00:46:00,
2013-05-27 19:51:00,49.3,46.7,29.74,East,90,1.8,5.1,91,0.00,,,0.00,WUHU21623XXSP,2013-05-28 00:51:00,
2013-05-27 19:56:00,49.3,46.7,29.74,SE,135,4.9,5.1,91,0.00,,,0.00,WUHU21623XXSP,2013-05-28 00:56:00,
2013-05-27 20:01:00,49.1,46.6,29.75,ENE,67,3.4,6.7,91,0.00,,,0.00,WUHU21623XXSP,2013-05-28 01:01:00,
2013-05-27 20:07:00,49.1,46.6,29.75,NNE,22,0.0,6.7,91,0.00,,,0.00,WUHU21623XXSP,2013-05-28 01:07:00,
2013-05-27 20:12:00,49.1,46.6,29.75,South,180,4.0,5.4,91,0.00,,,0.00,WUHU21623XXSP,2013-05-28 01:12:00,
2013-05-27 20:17:00,49.1,46.6,29.74,ESE,112,1.6,4.0,91,0.00,,,0.00,WUHU21623XXSP,2013-05-28 01:17:00,
2013-05-27 20:22:00,48.9,46.7,29.74,SE,135,4.3,4.3,92,0.00,,,0.00,WUHU21623XXSP,2013-05-28 01:22:00,
2013-05-27 20:27:00,49.1,46.9,29.74,NE,45,0.0,4.3,92,0.00,,,0.00,WUHU21623XXSP,2013-05-28 01:27:00,
2013-05-27 20:32:00,49.1,46.9,29.74,ENE,67,4.9,10.5,92,0.00,,,0.00,WUHU21623XXSP,2013-05-28 01:32:00,
2013-05-27 20:37:00,49.1,46.9,29.74,ENE,67,5.6,10.5,92,0.00,,,0.00,WUHU21623XXSP,2013-05-28 01:37:00,
2013-05-27 20:42:00,49.1,46.9,29.73,ENE,67,2.5,6.0,92,0.00,,,0.00,WUHU21623XXSP,2013-05-28 01:42:00,
2013-05-27 20:47:00,49.1,46.9,29.73,East,90,6.3,6.3,92,0.00,,,0.00,WUHU21623XXSP,2013-05-28 01:47:00,
2013-05-27 20:52:00,49.1,46.9,29.73,ENE,67,0.0,6.3,92,0.00,,,0.00,WUHU21623XXSP,2013-05-28 01:52:00,
2013-05-27 20:57:00,49.3,47.0,29.73,SE,135,7.4,7.4,92,0.00,,,0.00,WUHU21623XXSP,2013-05-28 01:57:00,
2013-05-27 21:02:00,49.3,47.0,29.73,East,90,2.7,7.4,92,0.00,,,0.00,WUHU21623XXSP,2013-05-28 02:02:00,
2013-05-27 21:07:00,49.3,47.0,29.74,ESE,112,2.0,4.9,92,0.00,,,0.00,WUHU21623XXSP,2013-05-28 02:07:00,
2013-05-27 21:12:00,49.3,47.0,29.73,ESE,112,5.8,5.8,92,0.00,,,0.00,WUHU21623XXSP,2013-05-28 02:12:00,
2013-05-27 21:17:00,49.3,47.0,29.73,ESE,112,2.7,5.8,92,0.00,,,0.00,WUHU21623XXSP,2013-05-28 02:17:00,
2013-05-27 21:22:00,49.3,47.0,29.72,ENE,67,0.0,5.8,92,0.00,,,0.00,WUHU21623XXSP,2013-05-28 02:22:00,
2013-05-27 21:27:00,49.1,46.9,29.72,ENE,67,4.5,4.7,92,0.00,,,0.00,WUHU21623XXSP,2013-05-28 02:27:00,
2013-05-27 21:32:00,49.1,47.0,29.72,East,90,0.0,4.5,92,0.00,,,0.00,WUHU21623XXSP,2013-05-28 02:32:00,
2013-05-27 21:37:00,49.1,46.9,29.72,ESE,112,5.1,5.1,92,0.00,,,0.00,WUHU21623XXSP,2013-05-28 02:37:00,
2013-05-27 21:42:00,49.1,46.9,29.73,SE,135,6.7,7.2,92,0.00,,,0.00,WUHU21623XXSP,2013-05-28 02:42:00,
2013-05-27 21:47:00,49.1,46.9,29.74,ESE,112,3.8,7.2,92,0.00,,,0.00,WUHU21623XXSP,2013-05-28 02:47:00,
2013-05-27 21:52:00,49.1,46.9,29.73,East,90,3.1,5.8,92,0.00,,,0.00,WUHU21623XXSP,2013-05-28 02:52:00,
2013-05-27 21:57:00,49.1,46.9,29.73,ESE,112,3.1,4.3,92,0.00,,,0.00,WUHU21623XXSP,2013-05-28 02:57:00,
2013-05-27 22:02:00,49.1,46.9,29.73,East,90,4.5,4.5,92,0.00,,,0.00,WUHU21623XXSP,2013-05-28 03:02:00,
2013-05-27 22:07:00,49.3,47.0,29.73,ESE,112,8.7,8.7,92,0.00,,,0.00,WUHU21623XXSP,2013-05-28 03:07:00,
2013-05-27 22:12:00,49.3,47.0,29.73,ENE,67,2.7,8.7,92,0.00,,,0.00,WUHU21623XXSP,2013-05-28 03:12:00,
2013-05-27 22:17:00,49.3,47.0,29.73,East,90,8.5,8.5,92,0.00,,,0.00,WUHU21623XXSP,2013-05-28 03:17:00,
2013-05-27 22:22:00,49.3,47.0,29.72,North,0,4.5,8.5,92,0.00,,,0.00,WUHU21623XXSP,2013-05-28 03:22:00,
2013-05-27 22:27:00,49.1,46.9,29.73,East,90,2.0,4.5,92,0.00,,,0.00,WUHU21623XXSP,2013-05-28 03:27:00,
2013-05-27 22:32:00,49.1,46.9,29.73,SE,135,0.0,4.5,92,0.00,,,0.00,WUHU21623XXSP,2013-05-28 03:32:00,
2013-05-27 22:37:00,49.1,46.9,29.72,SE,135,1.8,3.1,92,0.00,,,0.00,WUHU21623XXSP,2013-05-28 03:37:00,
2013-05-27 22:43:00,49.1,46.9,29.73,East,90,1.8,3.1,92,0.00,,,0.00,WUHU21623XXSP,2013-05-28 03:43:00,
2013-05-27 22:48:00,49.1,46.9,29.74,SE,135,4.0,4.0,92,0.00,,,0.00,WUHU21623XXSP,2013-05-28 03:48:00,
2013-05-27 22:53:00,49.3,47.0,29.74,SE,135,3.1,4.0,92,0.00,,,0.00,WUHU21623XXSP,2013-05-28 03:53:00,
2013-05-27 22:58:00,49.3,47.0,29.74,SE,135,2.0,3.1,92,0.00,,,0.00,WUHU21623XXSP,2013-05-28 03:58:00,
2013-05-27 23:01:00,49.3,47.0,29.74,ESE,112,0.0,3.1,92,0.00,,,0.00,WUHU21623XXSP,2013-05-28 04:01:00,
2013-05-27 23:06:00,49.3,47.0,29.74,East,90,2.0,3.1,92,0.00,,,0.00,WUHU21623XXSP,2013-05-28 04:06:00,
2013-05-27 23:11:00,49.3,47.0,29.74,ENE,67,3.6,3.6,92,0.00,,,0.00,WUHU21623XXSP,2013-05-28 04:11:00,
2013-05-27 23:12:00,49.3,47.0,29.73,ENE,67,1.6,3.6,92,0.00,,,0.00,WUHU21623XXSP,2013-05-28 04:12:00,
2013-05-27 23:31:00,49.3,47.0,29.72,East,90,2.2,2.2,92,0.00,,,0.00,WUHU21623XXSP,2013-05-28 04:31:00,